sensor_id;sensor_type;location;lat;lon;timestamp;P1;durP1;ratioP1;P2;durP2;ratioP2
6679;SDS011;3376;42.664;23.346;2022-10-31T00:00:46;4.03;;;3.63;;
6679;SDS011;3376;42.664;23.346;2022-10-31T00:03:13;3.83;;;3.63;;
6679;SDS011;3376;42.664;23.346;2022-10-31T00:05:41;3.83;;;3.53;;
6679;SDS011;3376;42.664;23.346;2022-10-31T00:08:08;3.80;;;3.60;;
6679;SDS011;3376;42.664;23.346;2022-10-31T00:10:36;3.77;;;3.50;;
6679;SDS011;3376;42.664;23.346;2022-10-31T00:13:04;3.73;;;3.53;;
6679;SDS011;3376;42.664;23.346;2022-10-31T00:15:32;6.10;;;4.27;;
6679;SDS011;3376;42.664;23.346;2022-10-31T00:18:00;4.53;;;3.83;;
6679;SDS011;3376;42.664;23.346;2022-10-31T00:20:27;4.00;;;3.67;;
6679;SDS011;3376;42.664;23.346;2022-10-31T00:22:57;4.63;;;3.63;;
6679;SDS011;3376;42.664;23.346;2022-10-31T00:25:24;3.57;;;3.37;;
6679;SDS011;3376;42.664;23.346;2022-10-31T00:27:51;3.50;;;3.20;;
6679;SDS011;3376;42.664;23.346;2022-10-31T00:30:18;3.83;;;3.53;;
6679;SDS011;3376;42.664;23.346;2022-10-31T00:32:45;3.93;;;3.30;;
6679;SDS011;3376;42.664;23.346;2022-10-31T00:35:13;3.60;;;3.40;;
6679;SDS011;3376;42.664;23.346;2022-10-31T00:37:40;4.10;;;3.67;;
6679;SDS011;3376;42.664;23.346;2022-10-31T00:40:07;3.83;;;3.53;;
6679;SDS011;3376;42.664;23.346;2022-10-31T00:42:35;4.90;;;4.00;;
6679;SDS011;3376;42.664;23.346;2022-10-31T00:45:02;4.03;;;3.80;;
6679;SDS011;3376;42.664;23.346;2022-10-31T00:47:29;4.87;;;4.00;;
6679;SDS011;3376;42.664;23.346;2022-10-31T00:49:56;3.73;;;3.43;;
6679;SDS011;3376;42.664;23.346;2022-10-31T00:52:24;4.10;;;3.53;;
6679;SDS011;3376;42.664;23.346;2022-10-31T00:54:50;3.83;;;3.63;;
6679;SDS011;3376;42.664;23.346;2022-10-31T00:57:17;4.33;;;3.87;;
6679;SDS011;3376;42.664;23.346;2022-10-31T00:59:44;3.90;;;3.60;;
6679;SDS011;3376;42.664;23.346;2022-10-31T01:02:11;4.63;;;4.23;;
6679;SDS011;3376;42.664;23.346;2022-10-31T01:04:37;3.70;;;3.50;;
6679;SDS011;3376;42.664;23.346;2022-10-31T01:07:04;4.30;;;3.43;;
6679;SDS011;3376;42.664;23.346;2022-10-31T01:09:32;4.30;;;4.00;;
6679;SDS011;3376;42.664;23.346;2022-10-31T01:11:59;3.77;;;3.57;;
6679;SDS011;3376;42.664;23.346;2022-10-31T01:14:26;5.07;;;4.07;;
6679;SDS011;3376;42.664;23.346;2022-10-31T01:16:52;3.87;;;3.67;;
6679;SDS011;3376;42.664;23.346;2022-10-31T01:19:19;4.53;;;4.13;;
6679;SDS011;3376;42.664;23.346;2022-10-31T01:21:46;4.37;;;4.00;;
6679;SDS011;3376;42.664;23.346;2022-10-31T01:24:12;4.00;;;3.80;;
6679;SDS011;3376;42.664;23.346;2022-10-31T01:26:41;5.93;;;4.20;;
6679;SDS011;3376;42.664;23.346;2022-10-31T01:29:07;4.70;;;3.73;;
6679;SDS011;3376;42.664;23.346;2022-10-31T01:31:35;6.73;;;4.27;;
6679;SDS011;3376;42.664;23.346;2022-10-31T01:34:04;3.60;;;3.40;;
6679;SDS011;3376;42.664;23.346;2022-10-31T01:36:32;5.83;;;3.33;;
6679;SDS011;3376;42.664;23.346;2022-10-31T01:39:02;5.23;;;4.77;;
6679;SDS011;3376;42.664;23.346;2022-10-31T01:41:31;5.60;;;5.03;;
6679;SDS011;3376;42.664;23.346;2022-10-31T01:44:02;7.63;;;6.93;;
6679;SDS011;3376;42.664;23.346;2022-10-31T01:46:50;8.33;;;7.57;;
6679;SDS011;3376;42.664;23.346;2022-10-31T01:49:20;11.90;;;7.27;;
6679;SDS011;3376;42.664;23.346;2022-10-31T01:51:52;7.83;;;7.40;;
6679;SDS011;3376;42.664;23.346;2022-10-31T01:54:24;11.47;;;7.97;;
6679;SDS011;3376;42.664;23.346;2022-10-31T01:56:57;8.03;;;7.23;;
6679;SDS011;3376;42.664;23.346;2022-10-31T01:59:27;8.00;;;6.83;;
6679;SDS011;3376;42.664;23.346;2022-10-31T02:01:57;7.67;;;7.10;;
6679;SDS011;3376;42.664;23.346;2022-10-31T02:04:24;8.60;;;7.87;;
6679;SDS011;3376;42.664;23.346;2022-10-31T02:06:53;7.90;;;7.30;;
6679;SDS011;3376;42.664;23.346;2022-10-31T02:09:24;8.23;;;7.53;;
6679;SDS011;3376;42.664;23.346;2022-10-31T02:11:52;7.53;;;6.93;;
6679;SDS011;3376;42.664;23.346;2022-10-31T02:14:22;7.63;;;7.13;;
6679;SDS011;3376;42.664;23.346;2022-10-31T02:16:53;9.20;;;7.83;;
6679;SDS011;3376;42.664;23.346;2022-10-31T02:19:21;8.00;;;7.23;;
6679;SDS011;3376;42.664;23.346;2022-10-31T02:21:58;7.73;;;7.23;;
6679;SDS011;3376;42.664;23.346;2022-10-31T02:24:43;7.37;;;6.97;;
6679;SDS011;3376;42.664;23.346;2022-10-31T02:27:17;8.50;;;7.80;;
6679;SDS011;3376;42.664;23.346;2022-10-31T02:30:05;6.97;;;6.57;;
6679;SDS011;3376;42.664;23.346;2022-10-31T02:32:43;7.67;;;7.03;;
6679;SDS011;3376;42.664;23.346;2022-10-31T02:35:20;8.17;;;6.97;;
6679;SDS011;3376;42.664;23.346;2022-10-31T02:37:56;8.17;;;7.50;;
6679;SDS011;3376;42.664;23.346;2022-10-31T02:40:30;7.33;;;6.83;;
6679;SDS011;3376;42.664;23.346;2022-10-31T02:43:05;10.17;;;7.43;;
6679;SDS011;3376;42.664;23.346;2022-10-31T02:45:38;7.20;;;6.80;;
6679;SDS011;3376;42.664;23.346;2022-10-31T02:48:09;8.27;;;7.60;;
6679;SDS011;3376;42.664;23.346;2022-10-31T02:50:42;7.70;;;7.20;;
6679;SDS011;3376;42.664;23.346;2022-10-31T02:53:13;7.43;;;6.93;;
6679;SDS011;3376;42.664;23.346;2022-10-31T02:55:49;8.07;;;7.40;;
6679;SDS011;3376;42.664;23.346;2022-10-31T02:58:21;8.03;;;7.40;;
6679;SDS011;3376;42.664;23.346;2022-10-31T03:04:04;7.93;;;6.90;;
6679;SDS011;3376;42.664;23.346;2022-10-31T03:06:52;6.87;;;6.57;;
6679;SDS011;3376;42.664;23.346;2022-10-31T03:09:27;7.23;;;6.73;;
6679;SDS011;3376;42.664;23.346;2022-10-31T03:12:01;7.87;;;7.23;;
6679;SDS011;3376;42.664;23.346;2022-10-31T03:14:35;7.87;;;7.10;;
6679;SDS011;3376;42.664;23.346;2022-10-31T03:17:07;8.07;;;6.93;;
6679;SDS011;3376;42.664;23.346;2022-10-31T03:19:42;8.23;;;7.53;;
6679;SDS011;3376;42.664;23.346;2022-10-31T03:22:14;8.73;;;8.03;;
6679;SDS011;3376;42.664;23.346;2022-10-31T03:24:42;7.30;;;6.77;;
6679;SDS011;3376;42.664;23.346;2022-10-31T03:27:12;6.93;;;6.43;;
6679;SDS011;3376;42.664;23.346;2022-10-31T03:29:42;7.30;;;6.80;;
6679;SDS011;3376;42.664;23.346;2022-10-31T03:32:12;9.33;;;7.40;;
6679;SDS011;3376;42.664;23.346;2022-10-31T03:34:43;7.53;;;6.90;;
6679;SDS011;3376;42.664;23.346;2022-10-31T03:37:15;7.60;;;7.10;;
6679;SDS011;3376;42.664;23.346;2022-10-31T03:39:44;7.50;;;6.87;;
6679;SDS011;3376;42.664;23.346;2022-10-31T03:42:15;6.70;;;6.20;;
6679;SDS011;3376;42.664;23.346;2022-10-31T03:44:45;7.00;;;6.50;;
6679;SDS011;3376;42.664;23.346;2022-10-31T03:47:16;7.67;;;7.10;;
6679;SDS011;3376;42.664;23.346;2022-10-31T03:49:44;7.87;;;7.10;;
6679;SDS011;3376;42.664;23.346;2022-10-31T03:52:12;7.63;;;6.97;;
6679;SDS011;3376;42.664;23.346;2022-10-31T03:54:46;7.17;;;6.50;;
6679;SDS011;3376;42.664;23.346;2022-10-31T03:57:18;6.97;;;6.37;;
6679;SDS011;3376;42.664;23.346;2022-10-31T03:59:51;7.20;;;6.70;;
6679;SDS011;3376;42.664;23.346;2022-10-31T04:02:28;7.70;;;7.10;;
6679;SDS011;3376;42.664;23.346;2022-10-31T04:04:59;7.50;;;7.03;;
6679;SDS011;3376;42.664;23.346;2022-10-31T04:07:28;6.90;;;6.40;;
6679;SDS011;3376;42.664;23.346;2022-10-31T04:09:58;8.13;;;7.43;;
6679;SDS011;3376;42.664;23.346;2022-10-31T04:12:28;8.73;;;7.73;;
6679;SDS011;3376;42.664;23.346;2022-10-31T04:14:57;8.07;;;7.30;;
6679;SDS011;3376;42.664;23.346;2022-10-31T04:17:29;8.47;;;7.83;;
6679;SDS011;3376;42.664;23.346;2022-10-31T04:20:00;9.33;;;7.47;;
6679;SDS011;3376;42.664;23.346;2022-10-31T04:22:27;8.23;;;7.53;;
6679;SDS011;3376;42.664;23.346;2022-10-31T04:24:54;7.40;;;7.03;;
6679;SDS011;3376;42.664;23.346;2022-10-31T04:27:20;8.37;;;7.60;;
6679;SDS011;3376;42.664;23.346;2022-10-31T04:29:47;9.23;;;8.20;;
6679;SDS011;3376;42.664;23.346;2022-10-31T04:32:14;9.10;;;8.37;;
6679;SDS011;3376;42.664;23.346;2022-10-31T04:34:41;8.47;;;7.77;;
6679;SDS011;3376;42.664;23.346;2022-10-31T04:37:09;8.40;;;7.80;;
6679;SDS011;3376;42.664;23.346;2022-10-31T04:39:36;8.17;;;7.67;;
6679;SDS011;3376;42.664;23.346;2022-10-31T04:42:02;8.93;;;8.27;;
6679;SDS011;3376;42.664;23.346;2022-10-31T04:44:29;10.17;;;7.77;;
6679;SDS011;3376;42.664;23.346;2022-10-31T04:46:56;9.03;;;8.10;;
6679;SDS011;3376;42.664;23.346;2022-10-31T04:49:23;9.33;;;8.50;;
6679;SDS011;3376;42.664;23.346;2022-10-31T04:51:49;8.30;;;7.90;;
6679;SDS011;3376;42.664;23.346;2022-10-31T04:54:17;8.23;;;7.33;;
6679;SDS011;3376;42.664;23.346;2022-10-31T04:56:44;9.17;;;8.27;;
6679;SDS011;3376;42.664;23.346;2022-10-31T04:59:11;8.60;;;7.73;;
6679;SDS011;3376;42.664;23.346;2022-10-31T05:01:37;8.97;;;7.70;;
6679;SDS011;3376;42.664;23.346;2022-10-31T05:04:04;8.60;;;7.90;;
6679;SDS011;3376;42.664;23.346;2022-10-31T05:06:31;8.77;;;7.63;;
6679;SDS011;3376;42.664;23.346;2022-10-31T05:08:58;7.87;;;6.53;;
6679;SDS011;3376;42.664;23.346;2022-10-31T05:11:26;8.43;;;7.60;;
6679;SDS011;3376;42.664;23.346;2022-10-31T05:13:52;9.47;;;8.67;;
6679;SDS011;3376;42.664;23.346;2022-10-31T05:16:19;7.83;;;7.13;;
6679;SDS011;3376;42.664;23.346;2022-10-31T05:18:46;9.37;;;8.40;;
6679;SDS011;3376;42.664;23.346;2022-10-31T05:21:13;11.53;;;9.10;;
6679;SDS011;3376;42.664;23.346;2022-10-31T05:23:39;9.47;;;8.60;;
6679;SDS011;3376;42.664;23.346;2022-10-31T05:26:06;18.53;;;8.90;;
6679;SDS011;3376;42.664;23.346;2022-10-31T05:28:34;10.03;;;7.87;;
6679;SDS011;3376;42.664;23.346;2022-10-31T05:31:01;10.63;;;7.83;;
6679;SDS011;3376;42.664;23.346;2022-10-31T05:33:27;10.33;;;8.37;;
6679;SDS011;3376;42.664;23.346;2022-10-31T05:35:54;8.90;;;8.07;;
6679;SDS011;3376;42.664;23.346;2022-10-31T05:38:21;11.70;;;8.87;;
6679;SDS011;3376;42.664;23.346;2022-10-31T05:40:48;9.87;;;8.87;;
6679;SDS011;3376;42.664;23.346;2022-10-31T05:43:14;11.23;;;8.53;;
6679;SDS011;3376;42.664;23.346;2022-10-31T05:45:42;10.27;;;9.20;;
6679;SDS011;3376;42.664;23.346;2022-10-31T05:48:09;9.43;;;8.23;;
6679;SDS011;3376;42.664;23.346;2022-10-31T05:50:39;10.20;;;9.50;;
6679;SDS011;3376;42.664;23.346;2022-10-31T05:53:06;10.57;;;9.57;;
6679;SDS011;3376;42.664;23.346;2022-10-31T05:55:33;10.23;;;9.23;;
6679;SDS011;3376;42.664;23.346;2022-10-31T05:58:00;16.47;;;8.97;;
6679;SDS011;3376;42.664;23.346;2022-10-31T06:00:27;14.07;;;9.63;;
6679;SDS011;3376;42.664;23.346;2022-10-31T06:02:59;13.23;;;9.30;;
6679;SDS011;3376;42.664;23.346;2022-10-31T06:05:26;10.87;;;9.57;;
6679;SDS011;3376;42.664;23.346;2022-10-31T06:07:52;16.87;;;9.97;;
6679;SDS011;3376;42.664;23.346;2022-10-31T06:10:19;12.37;;;9.10;;
6679;SDS011;3376;42.664;23.346;2022-10-31T06:12:46;10.17;;;9.30;;
6679;SDS011;3376;42.664;23.346;2022-10-31T06:15:13;10.53;;;9.53;;
6679;SDS011;3376;42.664;23.346;2022-10-31T06:17:40;12.40;;;9.40;;
6679;SDS011;3376;42.664;23.346;2022-10-31T06:20:08;11.70;;;10.00;;
6679;SDS011;3376;42.664;23.346;2022-10-31T06:22:36;9.63;;;8.60;;
6679;SDS011;3376;42.664;23.346;2022-10-31T06:25:03;13.53;;;9.93;;
6679;SDS011;3376;42.664;23.346;2022-10-31T06:27:30;12.57;;;9.70;;
6679;SDS011;3376;42.664;23.346;2022-10-31T06:29:56;11.87;;;10.40;;
6679;SDS011;3376;42.664;23.346;2022-10-31T06:32:23;10.83;;;9.80;;
6679;SDS011;3376;42.664;23.346;2022-10-31T06:34:50;10.73;;;9.53;;
6679;SDS011;3376;42.664;23.346;2022-10-31T06:37:18;12.53;;;9.97;;
6679;SDS011;3376;42.664;23.346;2022-10-31T06:39:45;10.20;;;9.50;;
6679;SDS011;3376;42.664;23.346;2022-10-31T06:42:11;10.83;;;9.93;;
6679;SDS011;3376;42.664;23.346;2022-10-31T06:44:38;10.87;;;10.07;;
6679;SDS011;3376;42.664;23.346;2022-10-31T06:47:05;17.40;;;11.43;;
6679;SDS011;3376;42.664;23.346;2022-10-31T06:49:33;12.43;;;11.13;;
6679;SDS011;3376;42.664;23.346;2022-10-31T06:52:01;12.97;;;11.77;;
6679;SDS011;3376;42.664;23.346;2022-10-31T06:54:30;11.17;;;10.03;;
6679;SDS011;3376;42.664;23.346;2022-10-31T06:56:57;12.20;;;10.93;;
6679;SDS011;3376;42.664;23.346;2022-10-31T06:59:23;11.73;;;10.53;;
6679;SDS011;3376;42.664;23.346;2022-10-31T07:01:50;11.27;;;10.07;;
6679;SDS011;3376;42.664;23.346;2022-10-31T07:04:17;11.20;;;10.43;;
6679;SDS011;3376;42.664;23.346;2022-10-31T07:06:44;14.82;;;10.38;;
6679;SDS011;3376;42.664;23.346;2022-10-31T07:09:11;12.48;;;11.25;;
6679;SDS011;3376;42.664;23.346;2022-10-31T07:11:39;12.23;;;10.82;;
6679;SDS011;3376;42.664;23.346;2022-10-31T07:14:05;12.35;;;11.25;;
6679;SDS011;3376;42.664;23.346;2022-10-31T07:16:32;16.05;;;11.63;;
6679;SDS011;3376;42.664;23.346;2022-10-31T07:18:59;12.27;;;11.05;;
6679;SDS011;3376;42.664;23.346;2022-10-31T07:21:26;13.00;;;11.90;;
6679;SDS011;3376;42.664;23.346;2022-10-31T07:23:52;13.30;;;12.10;;
6679;SDS011;3376;42.664;23.346;2022-10-31T07:26:19;13.70;;;11.65;;
6679;SDS011;3376;42.664;23.346;2022-10-31T07:28:47;14.07;;;12.77;;
6679;SDS011;3376;42.664;23.346;2022-10-31T07:31:14;12.65;;;11.40;;
6679;SDS011;3376;42.664;23.346;2022-10-31T07:33:41;13.68;;;12.35;;
6679;SDS011;3376;42.664;23.346;2022-10-31T07:36:08;14.70;;;11.75;;
6679;SDS011;3376;42.664;23.346;2022-10-31T07:38:35;14.68;;;11.60;;
6679;SDS011;3376;42.664;23.346;2022-10-31T07:41:01;16.10;;;14.43;;
6679;SDS011;3376;42.664;23.346;2022-10-31T07:43:28;12.60;;;11.57;;
6679;SDS011;3376;42.664;23.346;2022-10-31T07:45:56;11.05;;;10.10;;
6679;SDS011;3376;42.664;23.346;2022-10-31T07:48:23;12.05;;;11.07;;
6679;SDS011;3376;42.664;23.346;2022-10-31T07:50:50;12.35;;;10.98;;
6679;SDS011;3376;42.664;23.346;2022-10-31T07:53:16;11.68;;;10.15;;
6679;SDS011;3376;42.664;23.346;2022-10-31T07:55:43;12.53;;;11.33;;
6679;SDS011;3376;42.664;23.346;2022-10-31T07:58:10;11.97;;;10.80;;
6679;SDS011;3376;42.664;23.346;2022-10-31T08:00:38;12.20;;;11.20;;
6679;SDS011;3376;42.664;23.346;2022-10-31T08:03:08;11.73;;;10.83;;
6679;SDS011;3376;42.664;23.346;2022-10-31T08:05:36;11.10;;;10.40;;
6679;SDS011;3376;42.664;23.346;2022-10-31T08:08:04;12.13;;;11.17;;
6679;SDS011;3376;42.664;23.346;2022-10-31T08:10:32;13.20;;;11.30;;
6679;SDS011;3376;42.664;23.346;2022-10-31T08:13:00;11.18;;;10.05;;
6679;SDS011;3376;42.664;23.346;2022-10-31T08:15:28;11.93;;;10.85;;
6679;SDS011;3376;42.664;23.346;2022-10-31T08:17:55;11.60;;;10.25;;
6679;SDS011;3376;42.664;23.346;2022-10-31T08:20:24;11.68;;;10.65;;
6679;SDS011;3376;42.664;23.346;2022-10-31T08:22:54;11.75;;;10.63;;
6679;SDS011;3376;42.664;23.346;2022-10-31T08:25:22;12.50;;;11.13;;
6679;SDS011;3376;42.664;23.346;2022-10-31T08:27:50;12.13;;;10.93;;
6679;SDS011;3376;42.664;23.346;2022-10-31T08:30:17;12.63;;;11.13;;
6679;SDS011;3376;42.664;23.346;2022-10-31T08:32:44;13.45;;;10.88;;
6679;SDS011;3376;42.664;23.346;2022-10-31T08:35:12;13.00;;;11.80;;
6679;SDS011;3376;42.664;23.346;2022-10-31T08:37:40;12.00;;;10.95;;
6679;SDS011;3376;42.664;23.346;2022-10-31T08:40:07;11.93;;;11.02;;
6679;SDS011;3376;42.664;23.346;2022-10-31T08:42:36;12.82;;;11.63;;
6679;SDS011;3376;42.664;23.346;2022-10-31T08:45:03;17.35;;;9.80;;
6679;SDS011;3376;42.664;23.346;2022-10-31T08:47:30;10.93;;;9.88;;
6679;SDS011;3376;42.664;23.346;2022-10-31T08:49:57;12.13;;;10.00;;
6679;SDS011;3376;42.664;23.346;2022-10-31T08:52:23;15.82;;;10.48;;
6679;SDS011;3376;42.664;23.346;2022-10-31T08:54:52;13.90;;;9.68;;
6679;SDS011;3376;42.664;23.346;2022-10-31T08:57:19;22.67;;;10.43;;
6679;SDS011;3376;42.664;23.346;2022-10-31T08:59:46;14.68;;;10.48;;
6679;SDS011;3376;42.664;23.346;2022-10-31T09:02:13;10.98;;;9.98;;
6679;SDS011;3376;42.664;23.346;2022-10-31T09:04:39;11.73;;;9.88;;
6679;SDS011;3376;42.664;23.346;2022-10-31T09:07:06;11.48;;;10.48;;
6679;SDS011;3376;42.664;23.346;2022-10-31T09:09:33;17.27;;;10.27;;
6679;SDS011;3376;42.664;23.346;2022-10-31T09:12:01;11.57;;;10.45;;
6679;SDS011;3376;42.664;23.346;2022-10-31T09:14:28;12.45;;;11.45;;
6679;SDS011;3376;42.664;23.346;2022-10-31T09:16:54;16.48;;;11.50;;
6679;SDS011;3376;42.664;23.346;2022-10-31T09:19:21;11.02;;;9.98;;
6679;SDS011;3376;42.664;23.346;2022-10-31T09:21:51;11.65;;;10.65;;
6679;SDS011;3376;42.664;23.346;2022-10-31T09:24:18;10.52;;;9.35;;
6679;SDS011;3376;42.664;23.346;2022-10-31T09:26:45;11.45;;;10.25;;
6679;SDS011;3376;42.664;23.346;2022-10-31T09:29:13;11.02;;;9.85;;
6679;SDS011;3376;42.664;23.346;2022-10-31T09:31:40;12.13;;;10.20;;
6679;SDS011;3376;42.664;23.346;2022-10-31T09:34:07;10.00;;;9.05;;
6679;SDS011;3376;42.664;23.346;2022-10-31T09:36:33;14.85;;;9.98;;
6679;SDS011;3376;42.664;23.346;2022-10-31T09:39:00;11.27;;;9.73;;
6679;SDS011;3376;42.664;23.346;2022-10-31T09:41:28;10.65;;;9.73;;
6679;SDS011;3376;42.664;23.346;2022-10-31T09:44:18;9.48;;;8.55;;
6679;SDS011;3376;42.664;23.346;2022-10-31T09:46:53;9.98;;;8.75;;
6679;SDS011;3376;42.664;23.346;2022-10-31T09:49:33;12.90;;;9.43;;
6679;SDS011;3376;42.664;23.346;2022-10-31T09:52:10;11.45;;;9.30;;
6679;SDS011;3376;42.664;23.346;2022-10-31T09:54:40;9.40;;;8.73;;
6679;SDS011;3376;42.664;23.346;2022-10-31T09:57:12;10.45;;;9.05;;
6679;SDS011;3376;42.664;23.346;2022-10-31T09:59:43;9.82;;;8.63;;
6679;SDS011;3376;42.664;23.346;2022-10-31T10:02:13;9.05;;;7.97;;
6679;SDS011;3376;42.664;23.346;2022-10-31T10:04:44;8.30;;;7.63;;
6679;SDS011;3376;42.664;23.346;2022-10-31T10:07:18;7.95;;;7.15;;
6679;SDS011;3376;42.664;23.346;2022-10-31T10:09:49;7.47;;;6.80;;
6679;SDS011;3376;42.664;23.346;2022-10-31T10:12:16;12.75;;;6.47;;
6679;SDS011;3376;42.664;23.346;2022-10-31T10:14:58;6.88;;;6.13;;
6679;SDS011;3376;42.664;23.346;2022-10-31T10:17:51;10.85;;;6.47;;
6679;SDS011;3376;42.664;23.346;2022-10-31T10:20:28;9.32;;;6.85;;
6679;SDS011;3376;42.664;23.346;2022-10-31T10:23:10;5.38;;;4.88;;
6679;SDS011;3376;42.664;23.346;2022-10-31T10:25:49;5.28;;;4.80;;
6679;SDS011;3376;42.664;23.346;2022-10-31T10:28:23;11.10;;;6.43;;
6679;SDS011;3376;42.664;23.346;2022-10-31T10:30:56;8.57;;;4.65;;
6679;SDS011;3376;42.664;23.346;2022-10-31T10:33:28;6.18;;;4.25;;
6679;SDS011;3376;42.664;23.346;2022-10-31T10:35:59;4.78;;;4.25;;
6679;SDS011;3376;42.664;23.346;2022-10-31T10:38:28;13.85;;;4.68;;
6679;SDS011;3376;42.664;23.346;2022-10-31T10:41:02;3.75;;;3.55;;
6679;SDS011;3376;42.664;23.346;2022-10-31T10:43:33;5.40;;;4.03;;
6679;SDS011;3376;42.664;23.346;2022-10-31T10:46:11;4.13;;;3.83;;
6679;SDS011;3376;42.664;23.346;2022-10-31T10:49:03;4.38;;;3.97;;
6679;SDS011;3376;42.664;23.346;2022-10-31T10:51:37;3.78;;;3.20;;
6679;SDS011;3376;42.664;23.346;2022-10-31T10:54:10;4.70;;;4.13;;
6679;SDS011;3376;42.664;23.346;2022-10-31T10:56:50;4.32;;;3.90;;
6679;SDS011;3376;42.664;23.346;2022-10-31T10:59:24;5.95;;;2.90;;
6679;SDS011;3376;42.664;23.346;2022-10-31T11:01:53;5.47;;;3.45;;
6679;SDS011;3376;42.664;23.346;2022-10-31T11:04:30;4.85;;;3.30;;
6679;SDS011;3376;42.664;23.346;2022-10-31T11:06:58;4.68;;;2.92;;
6679;SDS011;3376;42.664;23.346;2022-10-31T11:09:26;5.47;;;3.38;;
6679;SDS011;3376;42.664;23.346;2022-10-31T11:11:53;3.65;;;2.75;;
6679;SDS011;3376;42.664;23.346;2022-10-31T11:14:22;5.05;;;2.60;;
6679;SDS011;3376;42.664;23.346;2022-10-31T11:16:50;4.55;;;3.33;;
6679;SDS011;3376;42.664;23.346;2022-10-31T11:19:22;6.35;;;3.72;;
6679;SDS011;3376;42.664;23.346;2022-10-31T11:21:51;4.10;;;3.90;;
6679;SDS011;3376;42.664;23.346;2022-10-31T11:24:19;5.35;;;3.67;;
6679;SDS011;3376;42.664;23.346;2022-10-31T11:26:50;6.28;;;5.68;;
6679;SDS011;3376;42.664;23.346;2022-10-31T11:29:20;6.80;;;4.57;;
6679;SDS011;3376;42.664;23.346;2022-10-31T11:31:51;4.25;;;3.90;;
6679;SDS011;3376;42.664;23.346;2022-10-31T11:34:25;12.88;;;6.60;;
6679;SDS011;3376;42.664;23.346;2022-10-31T11:36:57;6.25;;;5.13;;
6679;SDS011;3376;42.664;23.346;2022-10-31T11:39:29;7.78;;;5.63;;
6679;SDS011;3376;42.664;23.346;2022-10-31T11:41:59;15.05;;;9.77;;
6679;SDS011;3376;42.664;23.346;2022-10-31T11:44:28;9.00;;;4.97;;
6679;SDS011;3376;42.664;23.346;2022-10-31T11:46:58;18.42;;;9.35;;
6679;SDS011;3376;42.664;23.346;2022-10-31T11:52:16;8.98;;;4.65;;
6679;SDS011;3376;42.664;23.346;2022-10-31T11:54:46;7.25;;;4.90;;
6679;SDS011;3376;42.664;23.346;2022-10-31T11:57:23;7.75;;;4.55;;
6679;SDS011;3376;42.664;23.346;2022-10-31T11:59:52;5.30;;;4.30;;
6679;SDS011;3376;42.664;23.346;2022-10-31T12:02:21;5.28;;;4.68;;
6679;SDS011;3376;42.664;23.346;2022-10-31T12:04:50;4.43;;;3.83;;
6679;SDS011;3376;42.664;23.346;2022-10-31T12:07:24;4.82;;;4.32;;
6679;SDS011;3376;42.664;23.346;2022-10-31T12:09:50;7.32;;;4.03;;
6679;SDS011;3376;42.664;23.346;2022-10-31T12:12:27;4.45;;;3.83;;
6679;SDS011;3376;42.664;23.346;2022-10-31T12:15:10;3.72;;;3.45;;
6679;SDS011;3376;42.664;23.346;2022-10-31T12:17:50;4.75;;;3.45;;
6679;SDS011;3376;42.664;23.346;2022-10-31T12:20:26;6.57;;;5.88;;
6679;SDS011;3376;42.664;23.346;2022-10-31T12:23:03;5.85;;;3.90;;
6679;SDS011;3376;42.664;23.346;2022-10-31T12:25:38;4.38;;;4.07;;
6679;SDS011;3376;42.664;23.346;2022-10-31T12:28:15;4.38;;;3.42;;
6679;SDS011;3376;42.664;23.346;2022-10-31T12:31:07;6.70;;;3.10;;
6679;SDS011;3376;42.664;23.346;2022-10-31T12:33:53;4.40;;;4.00;;
6679;SDS011;3376;42.664;23.346;2022-10-31T12:36:35;3.35;;;3.13;;
6679;SDS011;3376;42.664;23.346;2022-10-31T12:39:13;8.07;;;3.85;;
6679;SDS011;3376;42.664;23.346;2022-10-31T12:41:51;3.60;;;3.40;;
6679;SDS011;3376;42.664;23.346;2022-10-31T12:44:29;3.63;;;2.80;;
6679;SDS011;3376;42.664;23.346;2022-10-31T12:47:10;5.45;;;3.20;;
6679;SDS011;3376;42.664;23.346;2022-10-31T12:49:54;12.18;;;3.95;;
6679;SDS011;3376;42.664;23.346;2022-10-31T12:52:34;3.83;;;3.40;;
6679;SDS011;3376;42.664;23.346;2022-10-31T12:55:11;6.43;;;3.67;;
6679;SDS011;3376;42.664;23.346;2022-10-31T12:57:52;4.82;;;3.70;;
6679;SDS011;3376;42.664;23.346;2022-10-31T13:00:23;5.72;;;3.10;;
6679;SDS011;3376;42.664;23.346;2022-10-31T13:02:53;3.75;;;3.28;;
6679;SDS011;3376;42.664;23.346;2022-10-31T13:05:24;8.60;;;4.13;;
6679;SDS011;3376;42.664;23.346;2022-10-31T13:07:57;5.32;;;3.63;;
6679;SDS011;3376;42.664;23.346;2022-10-31T13:10:27;6.45;;;3.35;;
6679;SDS011;3376;42.664;23.346;2022-10-31T13:13:05;3.45;;;2.83;;
6679;SDS011;3376;42.664;23.346;2022-10-31T13:15:41;7.28;;;3.88;;
6679;SDS011;3376;42.664;23.346;2022-10-31T13:18:16;9.15;;;3.30;;
6679;SDS011;3376;42.664;23.346;2022-10-31T13:20:53;12.15;;;3.80;;
6679;SDS011;3376;42.664;23.346;2022-10-31T13:23:24;4.88;;;3.40;;
6679;SDS011;3376;42.664;23.346;2022-10-31T13:25:55;4.90;;;3.17;;
6679;SDS011;3376;42.664;23.346;2022-10-31T13:28:27;6.88;;;3.60;;
6679;SDS011;3376;42.664;23.346;2022-10-31T13:30:57;3.70;;;3.00;;
6679;SDS011;3376;42.664;23.346;2022-10-31T13:33:25;4.43;;;4.00;;
6679;SDS011;3376;42.664;23.346;2022-10-31T13:35:58;5.03;;;3.75;;
6679;SDS011;3376;42.664;23.346;2022-10-31T13:38:36;4.28;;;3.38;;
6679;SDS011;3376;42.664;23.346;2022-10-31T13:41:10;4.03;;;3.72;;
6679;SDS011;3376;42.664;23.346;2022-10-31T13:43:58;7.13;;;3.92;;
6679;SDS011;3376;42.664;23.346;2022-10-31T13:46:34;3.55;;;3.25;;
6679;SDS011;3376;42.664;23.346;2022-10-31T13:49:02;4.38;;;3.40;;
6679;SDS011;3376;42.664;23.346;2022-10-31T13:51:30;8.63;;;3.67;;
6679;SDS011;3376;42.664;23.346;2022-10-31T13:54:19;5.63;;;3.63;;
6679;SDS011;3376;42.664;23.346;2022-10-31T13:56:48;5.05;;;3.47;;
6679;SDS011;3376;42.664;23.346;2022-10-31T13:59:17;9.65;;;3.20;;
6679;SDS011;3376;42.664;23.346;2022-10-31T14:01:48;5.70;;;3.60;;
6679;SDS011;3376;42.664;23.346;2022-10-31T14:04:18;8.55;;;4.00;;
6679;SDS011;3376;42.664;23.346;2022-10-31T14:06:57;5.63;;;3.60;;
6679;SDS011;3376;42.664;23.346;2022-10-31T14:09:33;5.28;;;3.80;;
6679;SDS011;3376;42.664;23.346;2022-10-31T14:12:03;3.40;;;3.10;;
6679;SDS011;3376;42.664;23.346;2022-10-31T14:14:33;5.93;;;4.20;;
6679;SDS011;3376;42.664;23.346;2022-10-31T14:17:12;8.60;;;3.95;;
6679;SDS011;3376;42.664;23.346;2022-10-31T14:19:55;6.70;;;3.80;;
6679;SDS011;3376;42.664;23.346;2022-10-31T14:22:28;9.70;;;4.00;;
6679;SDS011;3376;42.664;23.346;2022-10-31T14:24:57;3.88;;;3.47;;
6679;SDS011;3376;42.664;23.346;2022-10-31T14:27:32;10.45;;;3.60;;
6679;SDS011;3376;42.664;23.346;2022-10-31T14:30:16;8.70;;;4.13;;
6679;SDS011;3376;42.664;23.346;2022-10-31T14:32:47;9.10;;;3.70;;
6679;SDS011;3376;42.664;23.346;2022-10-31T14:35:18;10.00;;;4.20;;
6679;SDS011;3376;42.664;23.346;2022-10-31T14:37:56;11.33;;;4.53;;
6679;SDS011;3376;42.664;23.346;2022-10-31T14:40:35;35.00;;;19.47;;
6679;SDS011;3376;42.664;23.346;2022-10-31T14:43:18;12.07;;;8.70;;
6679;SDS011;3376;42.664;23.346;2022-10-31T14:46:02;13.60;;;4.70;;
6679;SDS011;3376;42.664;23.346;2022-10-31T14:48:39;6.37;;;4.27;;
6679;SDS011;3376;42.664;23.346;2022-10-31T14:51:19;6.73;;;4.10;;
6679;SDS011;3376;42.664;23.346;2022-10-31T14:53:48;17.73;;;5.10;;
6679;SDS011;3376;42.664;23.346;2022-10-31T14:56:20;13.27;;;5.03;;
6679;SDS011;3376;42.664;23.346;2022-10-31T14:58:50;9.30;;;5.50;;
6679;SDS011;3376;42.664;23.346;2022-10-31T15:01:21;15.83;;;6.33;;
6679;SDS011;3376;42.664;23.346;2022-10-31T15:03:51;13.73;;;5.63;;
6679;SDS011;3376;42.664;23.346;2022-10-31T15:06:20;5.73;;;4.60;;
6679;SDS011;3376;42.664;23.346;2022-10-31T15:08:49;7.30;;;4.50;;
6679;SDS011;3376;42.664;23.346;2022-10-31T15:11:19;14.53;;;4.80;;
6679;SDS011;3376;42.664;23.346;2022-10-31T15:13:47;11.77;;;5.03;;
6679;SDS011;3376;42.664;23.346;2022-10-31T15:16:16;9.57;;;5.27;;
6679;SDS011;3376;42.664;23.346;2022-10-31T15:18:51;8.20;;;5.43;;